Terminal Aerodrome Forecast
Issued by NWS

Home | Current Version | Previous Version | Text Only | Print | Product List | Glossary On
Versions: 1 2 3 4 5 6 7 8 9 10 11 12
000
FTUS42 KTBW 261738
TAFLAL
TAF
KLAL 261738Z 2618/2718 VRB03KT P6SM VCTS SCT045CB SCT250
     FM262100 23005KT P6SM VCTS BKN045CB
     FM270300 VRB03KT P6SM BKN035
     FM271100 VRB03KT P6SM BKN045=

USA.gov is the U.S. government's official web portal to all federal, state and local government web resources and services.